sensor_id;sensor_type;location;lat;lon;timestamp;temperature;humidity
79760;DHT22;70512;42.122;24.732;2023-12-22T00:02:03;4.80;76.00
79760;DHT22;70512;42.122;24.732;2023-12-22T00:04:30;4.80;75.30
79760;DHT22;70512;42.122;24.732;2023-12-22T00:06:57;4.90;75.10
79760;DHT22;70512;42.122;24.732;2023-12-22T00:09:24;4.90;75.20
79760;DHT22;70512;42.122;24.732;2023-12-22T00:11:51;4.90;74.40
79760;DHT22;70512;42.122;24.732;2023-12-22T00:14:18;4.90;74.10
79760;DHT22;70512;42.122;24.732;2023-12-22T00:16:44;5.00;73.70
79760;DHT22;70512;42.122;24.732;2023-12-22T00:19:11;5.00;73.50
79760;DHT22;70512;42.122;24.732;2023-12-22T00:21:40;5.00;73.40
79760;DHT22;70512;42.122;24.732;2023-12-22T00:24:06;5.00;73.30
79760;DHT22;70512;42.122;24.732;2023-12-22T00:26:38;5.00;73.80
79760;DHT22;70512;42.122;24.732;2023-12-22T00:29:02;5.00;74.00
79760;DHT22;70512;42.122;24.732;2023-12-22T00:31:28;5.00;74.10
79760;DHT22;70512;42.122;24.732;2023-12-22T00:33:55;5.00;73.90
79760;DHT22;70512;42.122;24.732;2023-12-22T00:36:22;5.00;74.10
79760;DHT22;70512;42.122;24.732;2023-12-22T00:38:50;5.00;74.20
79760;DHT22;70512;42.122;24.732;2023-12-22T00:41:17;5.00;74.30
79760;DHT22;70512;42.122;24.732;2023-12-22T00:43:47;4.90;74.50
79760;DHT22;70512;42.122;24.732;2023-12-22T00:46:14;4.90;74.60
79760;DHT22;70512;42.122;24.732;2023-12-22T00:48:41;4.80;74.80
79760;DHT22;70512;42.122;24.732;2023-12-22T00:51:08;4.80;75.00
79760;DHT22;70512;42.122;24.732;2023-12-22T00:53:35;4.80;75.10
79760;DHT22;70512;42.122;24.732;2023-12-22T00:56:03;4.80;75.40
79760;DHT22;70512;42.122;24.732;2023-12-22T00:58:30;4.70;75.60
79760;DHT22;70512;42.122;24.732;2023-12-22T01:00:57;4.70;75.90
79760;DHT22;70512;42.122;24.732;2023-12-22T01:03:24;4.60;76.10
79760;DHT22;70512;42.122;24.732;2023-12-22T01:05:50;4.60;76.00
79760;DHT22;70512;42.122;24.732;2023-12-22T01:08:17;4.70;76.00
79760;DHT22;70512;42.122;24.732;2023-12-22T01:10:44;4.70;75.90
79760;DHT22;70512;42.122;24.732;2023-12-22T01:13:11;4.60;76.80
79760;DHT22;70512;42.122;24.732;2023-12-22T01:15:38;4.60;76.70
79760;DHT22;70512;42.122;24.732;2023-12-22T01:18:05;4.60;76.60
79760;DHT22;70512;42.122;24.732;2023-12-22T01:20:31;4.60;76.50
79760;DHT22;70512;42.122;24.732;2023-12-22T01:22:58;4.60;77.00
79760;DHT22;70512;42.122;24.732;2023-12-22T01:25:25;4.50;77.60
79760;DHT22;70512;42.122;24.732;2023-12-22T01:27:52;4.50;78.00
79760;DHT22;70512;42.122;24.732;2023-12-22T01:30:19;4.60;76.80
79760;DHT22;70512;42.122;24.732;2023-12-22T01:32:46;4.70;75.90
79760;DHT22;70512;42.122;24.732;2023-12-22T01:35:12;4.70;75.40
79760;DHT22;70512;42.122;24.732;2023-12-22T01:37:40;4.70;75.40
79760;DHT22;70512;42.122;24.732;2023-12-22T01:40:08;4.70;75.50
79760;DHT22;70512;42.122;24.732;2023-12-22T01:42:35;4.70;75.50
79760;DHT22;70512;42.122;24.732;2023-12-22T01:45:02;4.70;75.60
79760;DHT22;70512;42.122;24.732;2023-12-22T01:47:29;4.40;76.90
79760;DHT22;70512;42.122;24.732;2023-12-22T01:49:56;4.20;77.50
79760;DHT22;70512;42.122;24.732;2023-12-22T01:52:23;4.20;78.30
79760;DHT22;70512;42.122;24.732;2023-12-22T01:54:50;4.20;77.30
79760;DHT22;70512;42.122;24.732;2023-12-22T01:57:17;4.30;77.20
79760;DHT22;70512;42.122;24.732;2023-12-22T01:59:47;4.30;77.30
79760;DHT22;70512;42.122;24.732;2023-12-22T02:02:13;4.40;77.40
79760;DHT22;70512;42.122;24.732;2023-12-22T02:04:41;4.40;77.40
79760;DHT22;70512;42.122;24.732;2023-12-22T02:07:07;4.30;77.90
79760;DHT22;70512;42.122;24.732;2023-12-22T02:09:36;4.40;78.00
79760;DHT22;70512;42.122;24.732;2023-12-22T02:12:03;4.50;77.40
79760;DHT22;70512;42.122;24.732;2023-12-22T02:14:30;4.60;76.80
79760;DHT22;70512;42.122;24.732;2023-12-22T02:19:27;4.80;75.20
79760;DHT22;70512;42.122;24.732;2023-12-22T02:22:02;4.90;74.60
79760;DHT22;70512;42.122;24.732;2023-12-22T02:24:29;4.90;74.40
79760;DHT22;70512;42.122;24.732;2023-12-22T02:27:03;5.00;73.70
79760;DHT22;70512;42.122;24.732;2023-12-22T02:29:28;5.00;73.20
79760;DHT22;70512;42.122;24.732;2023-12-22T02:31:56;5.10;73.40
79760;DHT22;70512;42.122;24.732;2023-12-22T02:34:24;5.10;73.20
79760;DHT22;70512;42.122;24.732;2023-12-22T02:36:51;5.10;72.90
79760;DHT22;70512;42.122;24.732;2023-12-22T02:39:19;5.10;72.90
79760;DHT22;70512;42.122;24.732;2023-12-22T02:41:46;5.10;73.00
79760;DHT22;70512;42.122;24.732;2023-12-22T02:44:13;5.10;73.10
79760;DHT22;70512;42.122;24.732;2023-12-22T02:46:40;5.10;73.10
79760;DHT22;70512;42.122;24.732;2023-12-22T02:49:08;5.10;73.20
79760;DHT22;70512;42.122;24.732;2023-12-22T02:51:36;5.00;73.20
79760;DHT22;70512;42.122;24.732;2023-12-22T02:54:03;4.90;74.20
79760;DHT22;70512;42.122;24.732;2023-12-22T02:56:30;4.90;74.70
79760;DHT22;70512;42.122;24.732;2023-12-22T02:58:56;4.80;75.10
79760;DHT22;70512;42.122;24.732;2023-12-22T03:01:23;4.90;75.00
79760;DHT22;70512;42.122;24.732;2023-12-22T03:03:50;5.00;74.50
79760;DHT22;70512;42.122;24.732;2023-12-22T03:06:17;5.10;74.40
79760;DHT22;70512;42.122;24.732;2023-12-22T03:08:44;5.10;74.40
79760;DHT22;70512;42.122;24.732;2023-12-22T03:11:15;5.20;74.10
79760;DHT22;70512;42.122;24.732;2023-12-22T03:13:39;5.20;74.00
79760;DHT22;70512;42.122;24.732;2023-12-22T03:16:09;5.10;74.70
79760;DHT22;70512;42.122;24.732;2023-12-22T03:18:41;4.80;75.50
79760;DHT22;70512;42.122;24.732;2023-12-22T03:21:05;4.60;76.60
79760;DHT22;70512;42.122;24.732;2023-12-22T03:23:32;4.40;77.00
79760;DHT22;70512;42.122;24.732;2023-12-22T03:26:02;4.30;77.90
79760;DHT22;70512;42.122;24.732;2023-12-22T03:28:27;4.30;78.60
79760;DHT22;70512;42.122;24.732;2023-12-22T03:30:54;4.30;78.60
79760;DHT22;70512;42.122;24.732;2023-12-22T03:33:22;4.40;78.40
79760;DHT22;70512;42.122;24.732;2023-12-22T03:35:49;4.50;77.70
79760;DHT22;70512;42.122;24.732;2023-12-22T03:38:16;4.50;77.80
79760;DHT22;70512;42.122;24.732;2023-12-22T03:40:43;4.60;77.60
79760;DHT22;70512;42.122;24.732;2023-12-22T03:43:10;4.70;77.30
79760;DHT22;70512;42.122;24.732;2023-12-22T03:45:38;4.70;76.90
79760;DHT22;70512;42.122;24.732;2023-12-22T03:48:05;4.70;76.30
79760;DHT22;70512;42.122;24.732;2023-12-22T03:50:32;4.70;76.20
79760;DHT22;70512;42.122;24.732;2023-12-22T03:52:59;4.80;75.50
79760;DHT22;70512;42.122;24.732;2023-12-22T03:55:26;4.90;75.00
79760;DHT22;70512;42.122;24.732;2023-12-22T03:57:53;5.00;74.70
79760;DHT22;70512;42.122;24.732;2023-12-22T04:00:23;5.00;74.60
79760;DHT22;70512;42.122;24.732;2023-12-22T04:02:48;5.00;75.00
79760;DHT22;70512;42.122;24.732;2023-12-22T04:05:15;4.90;74.90
79760;DHT22;70512;42.122;24.732;2023-12-22T04:07:42;5.00;75.00
79760;DHT22;70512;42.122;24.732;2023-12-22T04:10:09;5.10;74.40
79760;DHT22;70512;42.122;24.732;2023-12-22T04:12:36;5.20;74.00
79760;DHT22;70512;42.122;24.732;2023-12-22T04:15:03;5.20;74.30
79760;DHT22;70512;42.122;24.732;2023-12-22T04:17:30;5.30;73.70
79760;DHT22;70512;42.122;24.732;2023-12-22T04:19:57;5.30;73.60
79760;DHT22;70512;42.122;24.732;2023-12-22T04:22:29;5.40;73.30
79760;DHT22;70512;42.122;24.732;2023-12-22T04:24:52;5.50;72.90
79760;DHT22;70512;42.122;24.732;2023-12-22T04:27:19;5.60;72.50
79760;DHT22;70512;42.122;24.732;2023-12-22T04:29:45;5.60;72.10
79760;DHT22;70512;42.122;24.732;2023-12-22T04:32:12;5.70;72.00
79760;DHT22;70512;42.122;24.732;2023-12-22T04:34:39;5.70;71.80
79760;DHT22;70512;42.122;24.732;2023-12-22T04:37:06;5.80;71.50
79760;DHT22;70512;42.122;24.732;2023-12-22T04:39:33;5.80;71.10
79760;DHT22;70512;42.122;24.732;2023-12-22T04:41:59;5.80;70.90
79760;DHT22;70512;42.122;24.732;2023-12-22T04:44:26;5.80;70.60
79760;DHT22;70512;42.122;24.732;2023-12-22T04:46:53;5.80;70.70
79760;DHT22;70512;42.122;24.732;2023-12-22T04:49:20;5.70;70.80
79760;DHT22;70512;42.122;24.732;2023-12-22T04:51:47;5.80;70.90
79760;DHT22;70512;42.122;24.732;2023-12-22T04:54:14;5.80;71.00
79760;DHT22;70512;42.122;24.732;2023-12-22T04:56:40;5.90;70.90
79760;DHT22;70512;42.122;24.732;2023-12-22T04:59:07;5.80;70.70
79760;DHT22;70512;42.122;24.732;2023-12-22T05:01:35;5.80;70.60
79760;DHT22;70512;42.122;24.732;2023-12-22T05:04:02;5.80;71.40
79760;DHT22;70512;42.122;24.732;2023-12-22T05:06:28;5.80;70.90
79760;DHT22;70512;42.122;24.732;2023-12-22T05:08:55;5.80;71.40
79760;DHT22;70512;42.122;24.732;2023-12-22T05:11:27;5.70;71.80
79760;DHT22;70512;42.122;24.732;2023-12-22T05:13:50;5.60;72.40
79760;DHT22;70512;42.122;24.732;2023-12-22T05:16:17;5.60;72.50
79760;DHT22;70512;42.122;24.732;2023-12-22T05:18:44;5.60;72.50
79760;DHT22;70512;42.122;24.732;2023-12-22T05:21:14;5.70;72.20
79760;DHT22;70512;42.122;24.732;2023-12-22T05:23:41;5.80;71.70
79760;DHT22;70512;42.122;24.732;2023-12-22T05:26:07;5.90;71.80
79760;DHT22;70512;42.122;24.732;2023-12-22T05:28:37;5.60;73.90
79760;DHT22;70512;42.122;24.732;2023-12-22T05:31:04;5.10;76.20
79760;DHT22;70512;42.122;24.732;2023-12-22T05:33:31;4.90;77.50
79760;DHT22;70512;42.122;24.732;2023-12-22T05:35:58;4.70;78.50
79760;DHT22;70512;42.122;24.732;2023-12-22T05:38:25;4.70;78.60
79760;DHT22;70512;42.122;24.732;2023-12-22T05:40:52;4.70;78.50
79760;DHT22;70512;42.122;24.732;2023-12-22T05:43:19;4.60;78.30
79760;DHT22;70512;42.122;24.732;2023-12-22T05:45:45;4.80;77.90
79760;DHT22;70512;42.122;24.732;2023-12-22T05:48:12;4.90;77.70
79760;DHT22;70512;42.122;24.732;2023-12-22T05:50:39;4.90;77.80
79760;DHT22;70512;42.122;24.732;2023-12-22T05:53:06;4.80;78.00
79760;DHT22;70512;42.122;24.732;2023-12-22T05:55:33;4.90;78.00
79760;DHT22;70512;42.122;24.732;2023-12-22T05:57:59;4.90;78.50
79760;DHT22;70512;42.122;24.732;2023-12-22T06:00:26;5.10;77.40
79760;DHT22;70512;42.122;24.732;2023-12-22T06:02:53;5.20;76.80
79760;DHT22;70512;42.122;24.732;2023-12-22T06:05:22;5.20;76.80
79760;DHT22;70512;42.122;24.732;2023-12-22T06:07:49;5.00;77.60
79760;DHT22;70512;42.122;24.732;2023-12-22T06:10:16;5.10;77.30
79760;DHT22;70512;42.122;24.732;2023-12-22T06:12:43;5.30;76.40
79760;DHT22;70512;42.122;24.732;2023-12-22T06:15:10;5.40;75.90
79760;DHT22;70512;42.122;24.732;2023-12-22T06:17:37;5.40;75.70
79760;DHT22;70512;42.122;24.732;2023-12-22T06:20:04;5.30;76.00
79760;DHT22;70512;42.122;24.732;2023-12-22T06:22:31;5.50;75.90
79760;DHT22;70512;42.122;24.732;2023-12-22T06:24:58;5.60;75.00
79760;DHT22;70512;42.122;24.732;2023-12-22T06:27:25;5.80;74.20
79760;DHT22;70512;42.122;24.732;2023-12-22T06:29:52;6.00;73.30
79760;DHT22;70512;42.122;24.732;2023-12-22T06:32:21;6.10;73.00
79760;DHT22;70512;42.122;24.732;2023-12-22T06:34:48;6.30;72.90
79760;DHT22;70512;42.122;24.732;2023-12-22T06:37:14;6.30;72.50
79760;DHT22;70512;42.122;24.732;2023-12-22T06:39:42;6.10;73.50
79760;DHT22;70512;42.122;24.732;2023-12-22T06:42:09;5.90;74.10
79760;DHT22;70512;42.122;24.732;2023-12-22T06:44:44;5.90;74.20
79760;DHT22;70512;42.122;24.732;2023-12-22T06:47:08;6.00;74.00
79760;DHT22;70512;42.122;24.732;2023-12-22T06:49:35;6.20;73.90
79760;DHT22;70512;42.122;24.732;2023-12-22T06:52:02;6.40;72.80
79760;DHT22;70512;42.122;24.732;2023-12-22T06:54:28;6.30;72.90
79760;DHT22;70512;42.122;24.732;2023-12-22T06:56:55;6.00;74.00
79760;DHT22;70512;42.122;24.732;2023-12-22T06:59:22;5.90;74.90
79760;DHT22;70512;42.122;24.732;2023-12-22T07:01:49;5.90;75.30
79760;DHT22;70512;42.122;24.732;2023-12-22T07:04:16;5.90;75.20
79760;DHT22;70512;42.122;24.732;2023-12-22T07:06:43;6.10;74.60
79760;DHT22;70512;42.122;24.732;2023-12-22T07:11:42;6.50;72.30
79760;DHT22;70512;42.122;24.732;2023-12-22T07:14:09;6.70;71.90
79760;DHT22;70512;42.122;24.732;2023-12-22T07:16:36;6.90;71.40
79760;DHT22;70512;42.122;24.732;2023-12-22T07:19:08;7.00;70.90
79760;DHT22;70512;42.122;24.732;2023-12-22T07:21:31;7.20;70.30
79760;DHT22;70512;42.122;24.732;2023-12-22T07:23:58;7.30;69.50
79760;DHT22;70512;42.122;24.732;2023-12-22T07:26:25;7.40;69.00
79760;DHT22;70512;42.122;24.732;2023-12-22T07:28:54;7.40;68.80
79760;DHT22;70512;42.122;24.732;2023-12-22T07:31:20;7.40;68.80
79760;DHT22;70512;42.122;24.732;2023-12-22T07:33:47;7.40;68.40
79760;DHT22;70512;42.122;24.732;2023-12-22T07:36:14;7.40;68.50
79760;DHT22;70512;42.122;24.732;2023-12-22T07:38:41;7.20;70.60
79760;DHT22;70512;42.122;24.732;2023-12-22T07:41:08;7.10;70.00
79760;DHT22;70512;42.122;24.732;2023-12-22T07:43:35;7.20;70.30
79760;DHT22;70512;42.122;24.732;2023-12-22T07:46:04;7.30;69.30
79760;DHT22;70512;42.122;24.732;2023-12-22T07:48:31;7.30;69.00
79760;DHT22;70512;42.122;24.732;2023-12-22T07:50:58;7.40;68.70
79760;DHT22;70512;42.122;24.732;2023-12-22T07:53:25;7.30;68.50
79760;DHT22;70512;42.122;24.732;2023-12-22T07:55:51;7.20;67.70
79760;DHT22;70512;42.122;24.732;2023-12-22T07:58:18;6.90;68.90
79760;DHT22;70512;42.122;24.732;2023-12-22T08:00:45;6.70;69.60
79760;DHT22;70512;42.122;24.732;2023-12-22T08:03:12;6.80;70.00
79760;DHT22;70512;42.122;24.732;2023-12-22T08:05:39;6.70;70.30
79760;DHT22;70512;42.122;24.732;2023-12-22T08:08:06;6.70;70.90
79760;DHT22;70512;42.122;24.732;2023-12-22T08:10:32;6.60;71.40
79760;DHT22;70512;42.122;24.732;2023-12-22T08:12:59;6.70;71.80
79760;DHT22;70512;42.122;24.732;2023-12-22T08:15:26;6.80;71.30
79760;DHT22;70512;42.122;24.732;2023-12-22T08:17:53;6.90;69.70
79760;DHT22;70512;42.122;24.732;2023-12-22T08:20:20;7.00;69.00
79760;DHT22;70512;42.122;24.732;2023-12-22T08:22:48;7.20;68.50
79760;DHT22;70512;42.122;24.732;2023-12-22T08:25:15;7.40;67.40
79760;DHT22;70512;42.122;24.732;2023-12-22T08:27:44;7.70;65.70
79760;DHT22;70512;42.122;24.732;2023-12-22T08:30:11;8.00;63.70
79760;DHT22;70512;42.122;24.732;2023-12-22T08:32:38;8.20;63.10
79760;DHT22;70512;42.122;24.732;2023-12-22T08:35:05;8.30;62.30
79760;DHT22;70512;42.122;24.732;2023-12-22T08:37:32;8.40;61.40
79760;DHT22;70512;42.122;24.732;2023-12-22T08:39:59;8.50;61.40
79760;DHT22;70512;42.122;24.732;2023-12-22T08:42:26;8.50;61.40
79760;DHT22;70512;42.122;24.732;2023-12-22T08:44:54;8.40;61.30
79760;DHT22;70512;42.122;24.732;2023-12-22T08:47:21;8.40;61.90
79760;DHT22;70512;42.122;24.732;2023-12-22T08:49:48;8.50;61.90
79760;DHT22;70512;42.122;24.732;2023-12-22T08:52:15;8.50;61.70
79760;DHT22;70512;42.122;24.732;2023-12-22T08:54:42;8.50;61.50
79760;DHT22;70512;42.122;24.732;2023-12-22T08:57:08;8.50;61.50
79760;DHT22;70512;42.122;24.732;2023-12-22T08:59:36;8.60;61.70
79760;DHT22;70512;42.122;24.732;2023-12-22T09:02:08;8.60;61.50
79760;DHT22;70512;42.122;24.732;2023-12-22T09:04:32;8.70;61.40
79760;DHT22;70512;42.122;24.732;2023-12-22T09:06:58;8.80;61.30
79760;DHT22;70512;42.122;24.732;2023-12-22T09:09:25;8.80;61.00
79760;DHT22;70512;42.122;24.732;2023-12-22T09:11:53;8.90;61.10
79760;DHT22;70512;42.122;24.732;2023-12-22T09:14:20;8.90;61.10
79760;DHT22;70512;42.122;24.732;2023-12-22T09:16:47;9.00;61.10
79760;DHT22;70512;42.122;24.732;2023-12-22T09:19:14;9.00;60.90
79760;DHT22;70512;42.122;24.732;2023-12-22T09:21:41;9.10;60.90
79760;DHT22;70512;42.122;24.732;2023-12-22T09:24:09;9.10;60.60
79760;DHT22;70512;42.122;24.732;2023-12-22T09:26:38;9.20;60.60
79760;DHT22;70512;42.122;24.732;2023-12-22T09:29:05;9.10;60.30
79760;DHT22;70512;42.122;24.732;2023-12-22T09:31:32;9.20;60.10
79760;DHT22;70512;42.122;24.732;2023-12-22T09:33:59;9.20;60.60
79760;DHT22;70512;42.122;24.732;2023-12-22T09:36:28;9.20;61.20
79760;DHT22;70512;42.122;24.732;2023-12-22T09:38:57;9.10;61.20
79760;DHT22;70512;42.122;24.732;2023-12-22T09:41:24;9.10;61.30
79760;DHT22;70512;42.122;24.732;2023-12-22T09:43:54;9.10;61.10
79760;DHT22;70512;42.122;24.732;2023-12-22T09:46:22;9.20;61.50
79760;DHT22;70512;42.122;24.732;2023-12-22T09:48:51;9.20;61.50
79760;DHT22;70512;42.122;24.732;2023-12-22T09:51:18;9.40;61.50
79760;DHT22;70512;42.122;24.732;2023-12-22T09:53:45;9.50;61.40
79760;DHT22;70512;42.122;24.732;2023-12-22T09:56:13;9.60;61.10
79760;DHT22;70512;42.122;24.732;2023-12-22T09:58:41;9.60;60.90
79760;DHT22;70512;42.122;24.732;2023-12-22T10:01:08;9.60;61.10
79760;DHT22;70512;42.122;24.732;2023-12-22T10:03:35;9.60;61.30
79760;DHT22;70512;42.122;24.732;2023-12-22T10:06:03;9.60;61.80
79760;DHT22;70512;42.122;24.732;2023-12-22T10:08:30;9.60;62.50
79760;DHT22;70512;42.122;24.732;2023-12-22T10:10:59;9.50;62.90
79760;DHT22;70512;42.122;24.732;2023-12-22T10:13:26;9.50;63.70
79760;DHT22;70512;42.122;24.732;2023-12-22T10:15:54;9.50;64.40
79760;DHT22;70512;42.122;24.732;2023-12-22T10:18:22;9.40;64.70
79760;DHT22;70512;42.122;24.732;2023-12-22T10:20:49;9.40;65.80
79760;DHT22;70512;42.122;24.732;2023-12-22T10:23:15;9.40;66.10
79760;DHT22;70512;42.122;24.732;2023-12-22T10:25:42;9.40;67.00
79760;DHT22;70512;42.122;24.732;2023-12-22T10:28:11;9.40;67.90
79760;DHT22;70512;42.122;24.732;2023-12-22T10:30:39;9.40;69.20
79760;DHT22;70512;42.122;24.732;2023-12-22T10:33:07;9.30;70.70
79760;DHT22;70512;42.122;24.732;2023-12-22T10:35:34;9.30;71.20
79760;DHT22;70512;42.122;24.732;2023-12-22T10:38:00;9.30;73.10
79760;DHT22;70512;42.122;24.732;2023-12-22T10:40:27;9.30;74.10
79760;DHT22;70512;42.122;24.732;2023-12-22T10:42:54;9.30;74.70
79760;DHT22;70512;42.122;24.732;2023-12-22T10:45:22;9.30;75.20
79760;DHT22;70512;42.122;24.732;2023-12-22T10:47:50;9.40;75.70
79760;DHT22;70512;42.122;24.732;2023-12-22T10:50:18;9.30;76.40
79760;DHT22;70512;42.122;24.732;2023-12-22T10:52:49;9.30;76.90
79760;DHT22;70512;42.122;24.732;2023-12-22T10:55:18;9.30;78.40
79760;DHT22;70512;42.122;24.732;2023-12-22T10:57:45;9.10;78.80
79760;DHT22;70512;42.122;24.732;2023-12-22T11:00:14;9.10;80.00
79760;DHT22;70512;42.122;24.732;2023-12-22T11:02:43;9.00;80.80
79760;DHT22;70512;42.122;24.732;2023-12-22T11:05:11;8.90;80.90
79760;DHT22;70512;42.122;24.732;2023-12-22T11:07:46;9.00;80.90
79760;DHT22;70512;42.122;24.732;2023-12-22T11:10:09;9.00;81.20
79760;DHT22;70512;42.122;24.732;2023-12-22T11:12:37;9.10;81.00
79760;DHT22;70512;42.122;24.732;2023-12-22T11:15:06;9.20;81.50
79760;DHT22;70512;42.122;24.732;2023-12-22T11:17:36;9.30;80.10
79760;DHT22;70512;42.122;24.732;2023-12-22T11:20:01;9.40;79.20
79760;DHT22;70512;42.122;24.732;2023-12-22T11:22:30;9.50;78.30
79760;DHT22;70512;42.122;24.732;2023-12-22T11:24:58;9.70;77.50
79760;DHT22;70512;42.122;24.732;2023-12-22T11:27:25;10.00;76.20
79760;DHT22;70512;42.122;24.732;2023-12-22T11:29:55;10.20;75.70
79760;DHT22;70512;42.122;24.732;2023-12-22T11:32:23;10.50;74.80
79760;DHT22;70512;42.122;24.732;2023-12-22T11:34:50;10.60;75.60
79760;DHT22;70512;42.122;24.732;2023-12-22T11:37:20;10.70;74.60
79760;DHT22;70512;42.122;24.732;2023-12-22T11:39:47;10.80;75.20
79760;DHT22;70512;42.122;24.732;2023-12-22T11:42:18;11.20;73.80
79760;DHT22;70512;42.122;24.732;2023-12-22T11:44:45;11.70;71.50
79760;DHT22;70512;42.122;24.732;2023-12-22T11:47:12;12.20;69.50
79760;DHT22;70512;42.122;24.732;2023-12-22T11:49:40;12.70;67.90
79760;DHT22;70512;42.122;24.732;2023-12-22T11:52:14;13.10;66.30
79760;DHT22;70512;42.122;24.732;2023-12-22T11:54:49;13.40;64.90
79760;DHT22;70512;42.122;24.732;2023-12-22T12:00:05;13.30;64.90
79760;DHT22;70512;42.122;24.732;2023-12-22T12:02:33;13.00;65.80
79760;DHT22;70512;42.122;24.732;2023-12-22T12:05:01;12.90;65.70
79760;DHT22;70512;42.122;24.732;2023-12-22T12:07:39;12.70;66.00
79760;DHT22;70512;42.122;24.732;2023-12-22T12:10:09;12.60;66.90
79760;DHT22;70512;42.122;24.732;2023-12-22T12:12:36;12.50;67.40
79760;DHT22;70512;42.122;24.732;2023-12-22T12:15:07;12.40;67.90
79760;DHT22;70512;42.122;24.732;2023-12-22T12:17:37;12.60;68.40
79760;DHT22;70512;42.122;24.732;2023-12-22T12:20:04;13.50;65.80
79760;DHT22;70512;42.122;24.732;2023-12-22T12:22:31;14.70;61.80
79760;DHT22;70512;42.122;24.732;2023-12-22T12:24:57;15.40;57.60
79760;DHT22;70512;42.122;24.732;2023-12-22T12:27:26;14.90;58.00
79760;DHT22;70512;42.122;24.732;2023-12-22T12:29:53;14.30;59.00
79760;DHT22;70512;42.122;24.732;2023-12-22T12:32:22;13.60;60.00
79760;DHT22;70512;42.122;24.732;2023-12-22T12:34:49;13.20;62.00
79760;DHT22;70512;42.122;24.732;2023-12-22T12:37:18;13.00;62.80
79760;DHT22;70512;42.122;24.732;2023-12-22T12:39:46;12.80;64.40
79760;DHT22;70512;42.122;24.732;2023-12-22T12:42:14;12.60;63.80
79760;DHT22;70512;42.122;24.732;2023-12-22T12:44:49;12.60;63.30
79760;DHT22;70512;42.122;24.732;2023-12-22T12:47:16;12.70;63.30
79760;DHT22;70512;42.122;24.732;2023-12-22T12:49:43;12.60;63.20
79760;DHT22;70512;42.122;24.732;2023-12-22T12:52:13;12.60;63.10
79760;DHT22;70512;42.122;24.732;2023-12-22T12:54:40;12.70;63.20
79760;DHT22;70512;42.122;24.732;2023-12-22T12:57:07;12.80;63.50
79760;DHT22;70512;42.122;24.732;2023-12-22T12:59:36;12.70;63.50
79760;DHT22;70512;42.122;24.732;2023-12-22T13:02:03;12.70;64.40
79760;DHT22;70512;42.122;24.732;2023-12-22T13:04:36;12.70;64.40
79760;DHT22;70512;42.122;24.732;2023-12-22T13:07:05;12.70;64.50
79760;DHT22;70512;42.122;24.732;2023-12-22T13:09:32;13.20;62.40
79760;DHT22;70512;42.122;24.732;2023-12-22T13:12:00;14.00;60.00
79760;DHT22;70512;42.122;24.732;2023-12-22T13:14:27;14.70;57.60
79760;DHT22;70512;42.122;24.732;2023-12-22T13:16:55;15.20;56.30
79760;DHT22;70512;42.122;24.732;2023-12-22T13:19:22;15.50;56.00
79760;DHT22;70512;42.122;24.732;2023-12-22T13:21:50;15.50;56.10
79760;DHT22;70512;42.122;24.732;2023-12-22T13:24:18;15.20;56.60
79760;DHT22;70512;42.122;24.732;2023-12-22T13:26:45;14.70;58.10
79760;DHT22;70512;42.122;24.732;2023-12-22T13:29:12;14.20;58.60
79760;DHT22;70512;42.122;24.732;2023-12-22T13:31:41;13.50;60.50
79760;DHT22;70512;42.122;24.732;2023-12-22T13:34:09;13.30;62.00
79760;DHT22;70512;42.122;24.732;2023-12-22T13:36:39;13.00;62.40
79760;DHT22;70512;42.122;24.732;2023-12-22T13:39:08;12.80;62.90
79760;DHT22;70512;42.122;24.732;2023-12-22T13:41:37;12.90;63.50
79760;DHT22;70512;42.122;24.732;2023-12-22T13:44:04;12.80;63.80
79760;DHT22;70512;42.122;24.732;2023-12-22T13:46:31;12.80;64.50
79760;DHT22;70512;42.122;24.732;2023-12-22T13:48:59;12.70;64.50
79760;DHT22;70512;42.122;24.732;2023-12-22T13:51:26;12.70;64.70
79760;DHT22;70512;42.122;24.732;2023-12-22T13:53:53;12.50;64.90
79760;DHT22;70512;42.122;24.732;2023-12-22T13:56:19;12.40;65.80
79760;DHT22;70512;42.122;24.732;2023-12-22T13:58:47;12.20;66.20
79760;DHT22;70512;42.122;24.732;2023-12-22T14:01:14;12.10;66.40
79760;DHT22;70512;42.122;24.732;2023-12-22T14:03:42;12.10;66.50
79760;DHT22;70512;42.122;24.732;2023-12-22T14:06:09;12.00;66.50
79760;DHT22;70512;42.122;24.732;2023-12-22T14:08:41;11.90;66.50
79760;DHT22;70512;42.122;24.732;2023-12-22T14:11:07;11.80;66.90
79760;DHT22;70512;42.122;24.732;2023-12-22T14:13:35;11.70;67.20
79760;DHT22;70512;42.122;24.732;2023-12-22T14:16:04;11.60;67.40
79760;DHT22;70512;42.122;24.732;2023-12-22T14:18:31;11.50;67.20
79760;DHT22;70512;42.122;24.732;2023-12-22T14:20:58;11.40;67.60
79760;DHT22;70512;42.122;24.732;2023-12-22T14:23:25;11.40;67.90
79760;DHT22;70512;42.122;24.732;2023-12-22T14:25:52;11.30;68.10
79760;DHT22;70512;42.122;24.732;2023-12-22T14:28:19;11.30;68.10
79760;DHT22;70512;42.122;24.732;2023-12-22T14:30:47;11.20;68.00
79760;DHT22;70512;42.122;24.732;2023-12-22T14:33:14;11.20;67.70
79760;DHT22;70512;42.122;24.732;2023-12-22T14:35:41;11.20;67.90
79760;DHT22;70512;42.122;24.732;2023-12-22T14:38:08;11.20;67.80
79760;DHT22;70512;42.122;24.732;2023-12-22T14:40:35;11.20;67.50
79760;DHT22;70512;42.122;24.732;2023-12-22T14:43:02;11.20;67.10
79760;DHT22;70512;42.122;24.732;2023-12-22T14:45:29;11.20;66.40
79760;DHT22;70512;42.122;24.732;2023-12-22T14:47:56;11.20;66.30
79760;DHT22;70512;42.122;24.732;2023-12-22T14:50:22;11.20;65.90
79760;DHT22;70512;42.122;24.732;2023-12-22T14:52:49;11.20;66.00
79760;DHT22;70512;42.122;24.732;2023-12-22T14:55:16;11.20;65.30
79760;DHT22;70512;42.122;24.732;2023-12-22T14:57:44;11.10;65.40
79760;DHT22;70512;42.122;24.732;2023-12-22T15:00:11;11.10;65.00
79760;DHT22;70512;42.122;24.732;2023-12-22T15:02:38;11.20;65.40
79760;DHT22;70512;42.122;24.732;2023-12-22T15:05:05;11.20;65.60
79760;DHT22;70512;42.122;24.732;2023-12-22T15:07:31;11.20;66.00
79760;DHT22;70512;42.122;24.732;2023-12-22T15:09:58;11.20;66.00
79760;DHT22;70512;42.122;24.732;2023-12-22T15:12:25;11.20;65.70
79760;DHT22;70512;42.122;24.732;2023-12-22T15:14:54;11.10;64.60
79760;DHT22;70512;42.122;24.732;2023-12-22T15:17:20;11.10;62.60
79760;DHT22;70512;42.122;24.732;2023-12-22T15:19:47;11.10;61.80
79760;DHT22;70512;42.122;24.732;2023-12-22T15:22:14;11.20;63.50
79760;DHT22;70512;42.122;24.732;2023-12-22T15:24:42;11.20;63.30
79760;DHT22;70512;42.122;24.732;2023-12-22T15:27:10;11.20;63.30
79760;DHT22;70512;42.122;24.732;2023-12-22T15:29:37;11.30;63.50
79760;DHT22;70512;42.122;24.732;2023-12-22T15:32:05;11.20;63.40
79760;DHT22;70512;42.122;24.732;2023-12-22T15:34:32;11.20;63.60
79760;DHT22;70512;42.122;24.732;2023-12-22T15:36:59;11.10;65.00